Time,TemperatureF,DewpointF,PressureIn,WindDirection,WindDirectionDegrees,WindSpeedMPH,WindSpeedGustMPH,Humidity,HourlyPrecipIn,Conditions,Clouds,dailyrainin,SoftwareType,DateUTC
2013-12-02 00:05:00,51.2,45.0,30.03,NNE,28,0.0,-999.0,80,-99.99,,,0.00,weatherlink.com 1.10,2013-12-02 08:05:00,
2013-12-02 00:20:00,50.6,45.0,30.03,NNE,28,0.0,-999.0,80,-99.99,,,0.00,weatherlink.com 1.10,2013-12-02 08:20:00,
2013-12-02 00:35:00,50.0,44.0,30.02,NNE,28,0.0,-999.0,80,-99.99,,,0.00,weatherlink.com 1.10,2013-12-02 08:35:00,
2013-12-02 00:50:00,49.6,44.0,30.02,NNE,28,0.0,-999.0,81,-99.99,,,0.00,weatherlink.com 1.10,2013-12-02 08:50:00,
2013-12-02 01:05:00,49.5,44.0,30.01,NNE,28,0.0,-999.0,81,-99.99,,,0.00,weatherlink.com 1.10,2013-12-02 09:05:00,
2013-12-02 01:20:00,48.9,44.0,30.00,NNE,28,0.0,-999.0,82,-99.99,,,0.00,weatherlink.com 1.10,2013-12-02 09:20:00,
2013-12-02 01:35:00,48.6,43.0,30.00,NNE,28,0.0,-999.0,82,-99.99,,,0.00,weatherlink.com 1.10,2013-12-02 09:35:00,
2013-12-02 01:50:00,48.4,43.0,30.00,NNE,28,0.0,-999.0,82,-99.99,,,0.00,weatherlink.com 1.10,2013-12-02 09:50:00,
2013-12-02 02:05:00,47.9,43.0,30.00,NNE,28,0.0,-999.0,82,-99.99,,,0.00,weatherlink.com 1.10,2013-12-02 10:05:00,
2013-12-02 02:20:00,47.7,43.0,30.00,NNE,28,0.0,-999.0,83,-99.99,,,0.00,weatherlink.com 1.10,2013-12-02 10:20:00,
2013-12-02 02:35:00,47.6,43.0,29.99,NNE,28,0.0,-999.0,83,-99.99,,,0.00,weatherlink.com 1.10,2013-12-02 10:35:00,
2013-12-02 02:50:00,47.6,43.0,29.99,NNE,28,0.0,-999.0,83,-99.99,,,0.00,weatherlink.com 1.10,2013-12-02 10:50:00,
2013-12-02 03:05:00,47.4,43.0,29.98,NNE,28,0.0,-999.0,83,-99.99,,,0.00,weatherlink.com 1.10,2013-12-02 11:05:00,
2013-12-02 03:20:00,47.0,42.0,29.98,NNE,28,0.0,-999.0,83,-99.99,,,0.00,weatherlink.com 1.10,2013-12-02 11:20:00,
2013-12-02 03:35:00,46.7,42.0,29.97,NNE,28,0.0,-999.0,83,-99.99,,,0.00,weatherlink.com 1.10,2013-12-02 11:35:00,
2013-12-02 03:51:00,46.4,42.0,29.97,NNE,28,0.0,-999.0,83,-99.99,,,0.00,weatherlink.com 1.10,2013-12-02 11:51:00,
2013-12-02 04:06:00,46.2,41.0,29.97,NNE,28,0.0,-999.0,83,-99.99,,,0.00,weatherlink.com 1.10,2013-12-02 12:06:00,
2013-12-02 04:21:00,45.8,41.0,29.98,NNE,28,0.0,-999.0,84,-99.99,,,0.00,weatherlink.com 1.10,2013-12-02 12:21:00,
2013-12-02 04:36:00,45.6,41.0,29.98,NNE,28,0.0,-999.0,84,-99.99,,,0.00,weatherlink.com 1.10,2013-12-02 12:36:00,
2013-12-02 04:51:00,45.5,41.0,29.99,NNE,28,0.0,-999.0,85,-99.99,,,0.00,weatherlink.com 1.10,2013-12-02 12:51:00,
2013-12-02 05:06:00,45.4,41.0,29.99,NNE,28,0.0,-999.0,85,-99.99,,,0.00,weatherlink.com 1.10,2013-12-02 13:06:00,
2013-12-02 05:21:00,45.1,41.0,29.99,NNE,28,0.0,-999.0,85,-99.99,,,0.00,weatherlink.com 1.10,2013-12-02 13:21:00,
2013-12-02 05:36:00,45.0,41.0,30.00,NNE,28,1.0,-999.0,85,-99.99,,,0.00,weatherlink.com 1.10,2013-12-02 13:36:00,
2013-12-02 05:51:00,45.1,41.0,30.00,NNE,28,0.0,-999.0,85,-99.99,,,0.00,weatherlink.com 1.10,2013-12-02 13:51:00,
2013-12-02 06:06:00,44.7,41.0,30.00,NNE,28,0.0,-999.0,85,-99.99,,,0.00,weatherlink.com 1.10,2013-12-02 14:06:00,
2013-12-02 06:21:00,44.6,40.0,30.00,NNE,28,0.0,-999.0,85,-99.99,,,0.00,weatherlink.com 1.10,2013-12-02 14:21:00,
2013-12-02 06:36:00,44.5,41.0,30.01,NNE,28,0.0,-999.0,86,-99.99,,,0.00,weatherlink.com 1.10,2013-12-02 14:36:00,
2013-12-02 06:51:00,44.5,41.0,30.00,NNE,28,0.0,-999.0,86,-99.99,,,0.00,weatherlink.com 1.10,2013-12-02 14:51:00,
2013-12-02 07:06:00,44.4,41.0,30.01,NNE,28,0.0,-999.0,86,-99.99,,,0.00,weatherlink.com 1.10,2013-12-02 15:06:00,
2013-12-02 07:21:00,44.8,41.0,30.01,NNE,28,0.0,-999.0,87,-99.99,,,0.00,weatherlink.com 1.10,2013-12-02 15:21:00,
2013-12-02 07:36:00,45.5,42.0,30.01,NNE,28,0.0,-999.0,87,-99.99,,,0.00,weatherlink.com 1.10,2013-12-02 15:36:00,
2013-12-02 07:51:00,46.5,43.0,30.00,NNE,28,0.0,-999.0,87,-99.99,,,0.00,weatherlink.com 1.10,2013-12-02 15:51:00,
2013-12-02 08:06:00,48.2,45.0,30.01,NNE,28,0.0,-999.0,88,-99.99,,,0.00,weatherlink.com 1.10,2013-12-02 16:06:00,
2013-12-02 08:21:00,50.4,47.0,30.00,NNE,28,0.0,-999.0,87,-99.99,,,0.00,weatherlink.com 1.10,2013-12-02 16:21:00,
2013-12-02 08:36:00,52.4,48.0,30.00,NNE,28,0.0,-999.0,86,-99.99,,,0.00,weatherlink.com 1.10,2013-12-02 16:36:00,
2013-12-02 08:51:00,53.9,49.0,30.00,NNE,28,0.0,-999.0,84,-99.99,,,0.00,weatherlink.com 1.10,2013-12-02 16:51:00,
2013-12-02 09:06:00,56.8,47.0,30.00,NNE,28,0.0,-999.0,70,-99.99,,,0.00,weatherlink.com 1.10,2013-12-02 17:06:00,
2013-12-02 09:21:00,58.9,47.0,30.00,NNE,28,0.0,-999.0,65,-99.99,,,0.00,weatherlink.com 1.10,2013-12-02 17:21:00,
2013-12-02 09:36:00,61.0,46.0,30.00,NNE,28,2.0,-999.0,59,-99.99,,,0.00,weatherlink.com 1.10,2013-12-02 17:36:00,
2013-12-02 09:51:00,62.5,45.0,30.00,NNE,28,0.0,-999.0,53,-99.99,,,0.00,weatherlink.com 1.10,2013-12-02 17:51:00,
2013-12-02 10:06:00,64.2,46.0,29.99,NNE,28,0.0,-999.0,52,-99.99,,,0.00,weatherlink.com 1.10,2013-12-02 18:06:00,
2013-12-02 10:21:00,65.0,44.0,29.99,NNE,28,1.0,-999.0,47,-99.99,,,0.00,weatherlink.com 1.10,2013-12-02 18:21:00,
2013-12-02 10:36:00,67.3,45.0,29.97,NE,39,0.0,-999.0,44,-99.99,,,0.00,weatherlink.com 1.10,2013-12-02 18:36:00,
2013-12-02 10:51:00,67.9,46.0,29.97,North,5,2.0,-999.0,45,-99.99,,,0.00,weatherlink.com 1.10,2013-12-02 18:51:00,
2013-12-02 11:06:00,69.2,44.0,29.96,NE,35,0.0,-999.0,41,-99.99,,,0.00,weatherlink.com 1.10,2013-12-02 19:06:00,
2013-12-02 11:22:00,70.2,44.0,29.97,ENE,63,0.0,-999.0,39,-99.99,,,0.00,weatherlink.com 1.10,2013-12-02 19:22:00,
2013-12-02 11:37:00,71.0,42.0,29.97,ENE,63,0.0,-999.0,35,-99.99,,,0.00,weatherlink.com 1.10,2013-12-02 19:37:00,
2013-12-02 11:52:00,71.9,43.0,29.96,ENE,63,0.0,-999.0,35,-99.99,,,0.00,weatherlink.com 1.10,2013-12-02 19:52:00,
2013-12-02 12:07:00,72.0,44.0,29.95,South,175,0.0,-999.0,37,-99.99,,,0.00,weatherlink.com 1.10,2013-12-02 20:07:00,
2013-12-02 12:22:00,73.3,44.0,29.94,South,178,2.0,-999.0,35,-99.99,,,0.00,weatherlink.com 1.10,2013-12-02 20:22:00,
2013-12-02 12:37:00,73.6,42.0,29.94,SW,215,1.0,-999.0,32,-99.99,,,0.00,weatherlink.com 1.10,2013-12-02 20:37:00,
2013-12-02 12:52:00,74.0,41.0,29.93,West,269,0.0,-999.0,31,-99.99,,,0.00,weatherlink.com 1.10,2013-12-02 20:52:00,
2013-12-02 13:07:00,74.4,46.0,29.93,SW,221,4.0,-999.0,36,-99.99,,,0.00,weatherlink.com 1.10,2013-12-02 21:07:00,
2013-12-02 13:22:00,72.1,45.0,29.92,SW,234,3.0,-999.0,38,-99.99,,,0.00,weatherlink.com 1.10,2013-12-02 21:22:00,
2013-12-02 13:37:00,71.6,45.0,29.91,SSW,192,3.0,-999.0,39,-99.99,,,0.00,weatherlink.com 1.10,2013-12-02 21:37:00,
2013-12-02 13:52:00,70.6,46.0,29.91,WSW,246,4.0,-999.0,42,-99.99,,,0.00,weatherlink.com 1.10,2013-12-02 21:52:00,
2013-12-02 14:07:00,70.2,47.0,29.90,SW,228,2.0,-999.0,44,-99.99,,,0.00,weatherlink.com 1.10,2013-12-02 22:07:00,
2013-12-02 14:22:00,70.1,48.0,29.89,SW,227,0.0,-999.0,46,-99.99,,,0.00,weatherlink.com 1.10,2013-12-02 22:22:00,
2013-12-02 14:37:00,71.0,47.0,29.88,SSW,200,4.0,-999.0,42,-99.99,,,0.00,weatherlink.com 1.10,2013-12-02 22:37:00,
2013-12-02 14:52:00,71.2,46.0,29.88,SSW,200,0.0,-999.0,41,-99.99,,,0.00,weatherlink.com 1.10,2013-12-02 22:52:00,
2013-12-02 15:07:00,70.7,49.0,29.87,SSW,200,4.0,-999.0,46,-99.99,,,0.00,weatherlink.com 1.10,2013-12-02 23:07:00,
2013-12-02 15:22:00,69.7,50.0,29.87,SSW,212,4.0,-999.0,50,-99.99,,,0.00,weatherlink.com 1.10,2013-12-02 23:22:00,
2013-12-02 15:37:00,69.0,50.0,29.86,SSW,205,0.0,-999.0,52,-99.99,,,0.00,weatherlink.com 1.10,2013-12-02 23:37:00,
2013-12-02 15:52:00,68.6,52.0,29.87,SSW,205,0.0,-999.0,55,-99.99,,,0.00,weatherlink.com 1.10,2013-12-02 23:52:00,
2013-12-02 16:07:00,67.8,52.0,29.87,SSW,205,0.0,-999.0,57,-99.99,,,0.00,weatherlink.com 1.10,2013-12-03 00:07:00,
2013-12-02 16:22:00,67.1,52.0,29.86,SSW,205,0.0,-999.0,59,-99.99,,,0.00,weatherlink.com 1.10,2013-12-03 00:22:00,
2013-12-02 16:37:00,65.9,51.0,29.86,SSW,205,0.0,-999.0,60,-99.99,,,0.00,weatherlink.com 1.10,2013-12-03 00:37:00,
2013-12-02 17:07:00,63.1,51.0,29.85,SSW,205,0.0,-999.0,66,-99.99,,,0.00,weatherlink.com 1.10,2013-12-03 01:07:00,
2013-12-02 17:22:00,61.8,51.0,29.85,SSW,205,0.0,-999.0,69,-99.99,,,0.00,weatherlink.com 1.10,2013-12-03 01:22:00,
2013-12-02 17:37:00,60.6,51.0,29.86,SSW,205,0.0,-999.0,71,-99.99,,,0.00,weatherlink.com 1.10,2013-12-03 01:37:00,
2013-12-02 17:52:00,59.6,51.0,29.85,SSW,205,0.0,-999.0,74,-99.99,,,0.00,weatherlink.com 1.10,2013-12-03 01:52:00,
2013-12-02 18:07:00,59.3,52.0,29.86,SSW,205,0.0,-999.0,76,-99.99,,,0.00,weatherlink.com 1.10,2013-12-03 02:07:00,
2013-12-02 18:22:00,58.7,52.0,29.87,SSW,205,0.0,-999.0,77,-99.99,,,0.00,weatherlink.com 1.10,2013-12-03 02:22:00,
2013-12-02 18:37:00,58.0,52.0,29.87,SSW,205,0.0,-999.0,79,-99.99,,,0.00,weatherlink.com 1.10,2013-12-03 02:37:00,
2013-12-02 18:52:00,57.2,51.0,29.87,SSW,205,0.0,-999.0,80,-99.99,,,0.00,weatherlink.com 1.10,2013-12-03 02:52:00,
2013-12-02 19:07:00,56.3,50.0,29.87,SSW,205,0.0,-999.0,80,-99.99,,,0.00,weatherlink.com 1.10,2013-12-03 03:07:00,
2013-12-02 19:22:00,55.5,50.0,29.87,SSW,205,0.0,-999.0,81,-99.99,,,0.00,weatherlink.com 1.10,2013-12-03 03:22:00,
2013-12-02 19:37:00,54.9,50.0,29.87,SSW,205,0.0,-999.0,83,-99.99,,,0.00,weatherlink.com 1.10,2013-12-03 03:37:00,
2013-12-02 19:52:00,54.3,49.0,29.87,SSW,205,0.0,-999.0,83,-99.99,,,0.00,weatherlink.com 1.10,2013-12-03 03:52:00,
2013-12-02 20:07:00,53.9,49.0,29.86,SSW,205,0.0,-999.0,84,-99.99,,,0.00,weatherlink.com 1.10,2013-12-03 04:07:00,
2013-12-02 20:22:00,53.3,49.0,29.86,SSW,205,0.0,-999.0,85,-99.99,,,0.00,weatherlink.com 1.10,2013-12-03 04:22:00,
2013-12-02 20:37:00,53.0,49.0,29.85,SSW,205,0.0,-999.0,85,-99.99,,,0.00,weatherlink.com 1.10,2013-12-03 04:37:00,
2013-12-02 20:52:00,52.6,48.0,29.85,SSW,205,0.0,-999.0,85,-99.99,,,0.00,weatherlink.com 1.10,2013-12-03 04:52:00,
2013-12-02 21:07:00,52.3,48.0,29.85,SSW,205,0.0,-999.0,86,-99.99,,,0.00,weatherlink.com 1.10,2013-12-03 05:07:00,
2013-12-02 21:22:00,51.9,48.0,29.85,SSW,205,0.0,-999.0,86,-99.99,,,0.00,weatherlink.com 1.10,2013-12-03 05:22:00,
2013-12-02 21:37:00,51.2,47.0,29.85,SSW,205,0.0,-999.0,86,-99.99,,,0.00,weatherlink.com 1.10,2013-12-03 05:37:00,
2013-12-02 21:52:00,50.9,47.0,29.85,SSW,205,0.0,-999.0,86,-99.99,,,0.00,weatherlink.com 1.10,2013-12-03 05:52:00,
2013-12-02 22:07:00,50.9,47.0,29.85,SSW,205,0.0,-999.0,87,-99.99,,,0.00,weatherlink.com 1.10,2013-12-03 06:07:00,
2013-12-02 22:22:00,50.6,47.0,29.84,SSW,205,0.0,-999.0,87,-99.99,,,0.00,weatherlink.com 1.10,2013-12-03 06:22:00,
2013-12-02 22:37:00,50.5,47.0,29.83,SSW,205,0.0,-999.0,87,-99.99,,,0.00,weatherlink.com 1.10,2013-12-03 06:37:00,
2013-12-02 22:52:00,49.9,47.0,29.84,SSW,205,0.0,-999.0,88,-99.99,,,0.00,weatherlink.com 1.10,2013-12-03 06:52:00,
2013-12-02 23:07:00,49.8,46.0,29.84,SSW,205,0.0,-999.0,88,-99.99,,,0.00,weatherlink.com 1.10,2013-12-03 07:07:00,
2013-12-02 23:22:00,49.5,46.0,29.84,SSW,205,0.0,-999.0,88,-99.99,,,0.00,weatherlink.com 1.10,2013-12-03 07:22:00,
2013-12-02 23:37:00,49.2,46.0,29.84,SSW,205,0.0,-999.0,88,-99.99,,,0.00,weatherlink.com 1.10,2013-12-03 07:37:00,
2013-12-02 23:52:00,48.9,46.0,29.84,SSW,205,0.0,-999.0,89,-99.99,,,0.00,weatherlink.com 1.10,2013-12-03 07:52:00,